ESNK/KRF METAR and TAF weather

Enter ICAO airport designator
Station Type Date Time Source
ESNK METAR 2021/09/16 22:20 UTC NOAA

ESNK 162220Z AUTO VRB02KT 9999 OVC038/// 06/04 Q1024


Station Type Date Time Source
ESNK Decoded METAR 2021/09/16 22:20 UTC NOAA

Kramfors Flygplats, Sweden (ESNK) 63-03N 017-46E 19M
Sep 16, 2021 - 06:20 PM EDT / 2021.09.16 2220 UTC
Wind: Variable at 2 MPH (2 KT):0
Visibility: greater than 7 mile(s):0
Sky conditions: overcast
Temperature: 42 F (6 C)
Dew Point: 39 F (4 C)
Relative Humidity: 86%
Pressure (altimeter): 30.24 in. Hg (1024 hPa)
ob: ESNK 162220Z AUTO VRB02KT 9999 OVC038/// 06/04 Q1024
cycle: 22

Station Type Date Time Source
ESNK TAF 2017/12/15 06:00 UTC NOAA

TAF
AMD ESNK 150654Z 1506/1521 35005KT 6000 -SN BKN016
TEMPO 1506/1521 2000 SN SG VV009

Example: see airport list